Time;durP1;ratioP1;P1;durP2;ratioP2;P2;SDS_P1;SDS_P2;PMS_P1;PMS_P2;Temp;Humidity;BMP_temperature;BMP_pressure;BME280_temperature;BME280_humidity;BME280_pressure;Samples;Min_cycle;Max_cycle;Signal;HPM_P1;HPM_P2
2021/01/19 00:01:18;;;;;;;35.63;16.77;;;2.90;99.90;;;;;;4998727;28;20026;-77
2021/01/19 00:03:44;;;;;;;36.70;15.65;;;2.90;99.90;;;;;;4996997;28;20459;-78
2021/01/19 00:06:10;;;;;;;29.15;14.77;;;2.80;99.90;;;;;;4995609;28;20514;-77
2021/01/19 00:08:36;;;;;;;36.97;16.65;;;2.90;99.90;;;;;;4996630;28;20030;-77
2021/01/19 00:11:05;;;;;;;13.30;7.88;;;2.80;99.90;;;;;;5004849;28;20030;-75
2021/01/19 00:13:31;;;;;;;18.17;9.40;;;2.90;99.90;;;;;;4976252;28;20365;-76
2021/01/19 00:15:58;;;;;;;13.93;7.43;;;2.80;99.90;;;;;;5000437;28;20034;-77
2021/01/19 00:18:25;;;;;;;8.07;5.38;;;2.90;99.90;;;;;;4999901;28;20034;-76
2021/01/19 00:20:52;;;;;;;10.57;5.05;;;2.90;99.90;;;;;;4988495;28;20372;-76
2021/01/19 00:23:18;;;;;;;7.53;4.50;;;3.00;99.90;;;;;;4977618;28;20042;-76
2021/01/19 00:25:45;;;;;;;7.95;4.47;;;3.00;99.90;;;;;;4995260;28;20042;-75
2021/01/19 00:28:11;;;;;;;8.05;3.55;;;3.00;99.90;;;;;;4994889;28;20041;-77
2021/01/19 00:30:46;;;;;;;6.38;3.55;;;3.00;99.90;;;;;;4996215;28;20061;-76
2021/01/19 00:33:12;;;;;;;7.35;3.97;;;3.10;99.90;;;;;;5005968;28;20030;-76
2021/01/19 00:35:40;;;;;;;12.23;7.47;;;3.00;99.90;;;;;;4995352;28;20034;-76
2021/01/19 00:38:08;;;;;;;7.07;4.53;;;3.00;99.90;;;;;;4995257;28;20041;-76
2021/01/19 00:40:34;;;;;;;14.73;7.88;;;3.00;99.90;;;;;;4995230;28;20049;-76
2021/01/19 00:43:01;;;;;;;10.65;4.63;;;3.00;99.90;;;;;;4995175;28;20034;-76
2021/01/19 00:45:28;;;;;;;9.38;5.22;;;2.90;99.90;;;;;;4994376;28;20092;-77
2021/01/19 00:47:54;;;;;;;11.23;5.80;;;3.00;99.90;;;;;;4994771;28;20038;-75
2021/01/19 00:50:21;;;;;;;12.70;5.78;;;2.90;99.90;;;;;;4979385;28;20443;-76
2021/01/19 00:52:48;;;;;;;12.23;5.38;;;2.90;99.90;;;;;;5003791;28;20046;-76
2021/01/19 00:55:15;;;;;;;13.45;6.15;;;2.80;99.90;;;;;;4992279;28;20054;-76
2021/01/19 00:57:45;;;;;;;14.10;6.30;;;2.80;99.90;;;;;;4977295;28;20427;-75
2021/01/19 01:00:14;;;;;;;19.13;7.80;;;2.80;99.90;;;;;;4976666;28;20118;-76
2021/01/19 01:02:40;;;;;;;13.55;5.93;;;2.70;99.90;;;;;;4992444;28;20038;-76
2021/01/19 01:05:09;;;;;;;14.65;6.80;;;2.70;99.90;;;;;;4998910;28;20046;-77
2021/01/19 01:07:36;;;;;;;9.93;5.80;;;2.70;99.90;;;;;;4976799;28;20034;-76
2021/01/19 01:10:05;;;;;;;10.77;5.57;;;2.70;99.90;;;;;;4993596;28;20045;-75
2021/01/19 01:12:32;;;;;;;33.33;14.73;;;2.70;99.90;;;;;;4992548;28;20031;-76
2021/01/19 01:14:59;;;;;;;23.10;8.38;;;2.70;99.90;;;;;;4994030;28;20491;-77
2021/01/19 01:17:25;;;;;;;29.63;10.70;;;2.60;99.90;;;;;;4993507;28;20476;-77
2021/01/19 01:19:51;;;;;;;29.75;13.85;;;2.60;99.90;;;;;;4993744;28;20041;-76
2021/01/19 01:22:18;;;;;;;23.85;9.65;;;2.70;99.90;;;;;;4993483;28;20069;-77
2021/01/19 01:24:44;;;;;;;14.38;8.02;;;2.60;99.90;;;;;;4976505;28;20065;-76
2021/01/19 01:27:10;;;;;;;19.67;8.98;;;2.60;99.90;;;;;;4993312;28;20038;-78
2021/01/19 01:29:36;;;;;;;20.08;7.53;;;2.70;99.90;;;;;;5003905;28;20046;-77
2021/01/19 01:32:03;;;;;;;29.25;12.30;;;2.60;99.90;;;;;;5000915;28;20476;-76
2021/01/19 01:34:29;;;;;;;16.73;8.23;;;2.70;99.90;;;;;;4993862;28;20361;-75
2021/01/19 01:36:55;;;;;;;16.33;7.82;;;2.80;99.90;;;;;;4993613;28;20042;-75
2021/01/19 01:39:21;;;;;;;16.60;7.32;;;2.80;99.90;;;;;;4993960;28;20395;-76
2021/01/19 01:41:48;;;;;;;28.48;13.65;;;2.80;99.90;;;;;;4960716;28;20049;-76
2021/01/19 01:44:14;;;;;;;16.50;7.65;;;2.80;99.90;;;;;;4991257;28;20049;-75
2021/01/19 01:46:42;;;;;;;17.90;7.90;;;2.90;99.90;;;;;;4975810;28;20053;-77
2021/01/19 01:49:08;;;;;;;22.30;9.38;;;2.90;99.90;;;;;;4993436;28;20038;-76
2021/01/19 01:51:35;;;;;;;17.52;9.77;;;2.90;99.90;;;;;;4975582;28;20041;-77
2021/01/19 01:54:02;;;;;;;11.98;4.65;;;2.90;99.90;;;;;;4993023;28;20495;-77
2021/01/19 01:56:28;;;;;;;11.60;4.95;;;2.90;99.90;;;;;;4992903;28;20046;-77
2021/01/19 01:58:55;;;;;;;9.63;4.70;;;2.90;99.90;;;;;;4979192;28;20042;-77
2021/01/19 02:01:23;;;;;;;12.98;6.32;;;2.90;99.90;;;;;;4993943;28;20388;-77
2021/01/19 02:03:50;;;;;;;13.02;5.95;;;2.90;99.90;;;;;;4994172;28;20030;-77
2021/01/19 02:06:17;;;;;;;13.50;4.75;;;2.90;99.90;;;;;;4993372;28;20034;-77
2021/01/19 02:09:05;;;;;;;10.07;5.55;;;3.00;99.90;;;;;;4993444;28;20034;-77
2021/01/19 02:12:04;;;;;;;8.13;4.00;;;2.90;99.90;;;;;;4992921;28;20038;-77
2021/01/19 02:14:41;;;;;;;8.70;4.00;;;3.00;99.90;;;;;;4959883;28;20369;-77
2021/01/19 02:17:23;;;;;;;9.82;5.15;;;2.90;99.90;;;;;;4993491;28;20403;-76
2021/01/19 02:20:08;;;;;;;;;;;2.90;99.90;;;;;;4993482;28;20038;-77
2021/01/19 02:23:03;;;;;;;8.32;4.05;;;2.90;99.90;;;;;;4992708;28;20394;-77
2021/01/19 02:26:08;;;;;;;10.88;4.78;;;2.90;99.90;;;;;;4992574;28;20046;-77
2021/01/19 02:28:46;;;;;;;11.70;5.10;;;2.90;99.90;;;;;;4992190;28;20057;-77
2021/01/19 02:31:22;;;;;;;10.55;5.00;;;2.90;99.90;;;;;;4993764;28;20054;-77
2021/01/19 02:34:34;;;;;;;8.95;4.60;;;2.90;99.90;;;;;;4993667;28;20035;-77
2021/01/19 02:37:17;;;;;;;;;;;2.90;99.90;;;;;;4949091;28;20055;-77
2021/01/19 02:40:03;;;;;;;8.68;4.55;;;2.90;99.90;;;;;;4993805;28;19910;-77
2021/01/19 02:43:09;;;;;;;6.78;4.05;;;2.80;99.90;;;;;;4992499;28;20035;-77
2021/01/19 02:45:37;;;;;;;11.02;4.57;;;2.90;99.90;;;;;;4992448;28;20384;-76
2021/01/19 02:48:04;;;;;;;10.90;4.80;;;2.90;99.90;;;;;;4992857;28;20026;-77
2021/01/19 02:50:31;;;;;;;8.85;4.05;;;2.80;99.90;;;;;;4992465;28;20030;-77
2021/01/19 02:53:00;;;;;;;9.75;4.82;;;2.90;99.90;;;;;;4975197;28;20034;-76
2021/01/19 02:55:27;;;;;;;8.35;4.15;;;2.80;99.90;;;;;;4992135;28;20049;-76
2021/01/19 02:58:05;;;;;;;12.45;4.78;;;2.90;99.90;;;;;;4992776;28;20035;-77
2021/01/19 03:00:40;;;;;;;8.68;4.70;;;2.90;99.90;;;;;;4992544;28;20037;-75
2021/01/19 03:03:08;;;;;;;10.55;4.53;;;2.90;99.90;;;;;;4992786;28;20034;-76
2021/01/19 03:05:37;;;;;;;7.68;3.85;;;2.90;99.90;;;;;;4992236;28;20062;-76
2021/01/19 03:08:05;;;;;;;10.43;4.80;;;2.90;99.90;;;;;;4993225;28;20030;-75
2021/01/19 03:10:38;;;;;;;8.05;4.68;;;2.90;99.90;;;;;;4996158;28;20041;-77
2021/01/19 03:13:04;;;;;;;7.97;3.83;;;2.90;99.90;;;;;;4996382;28;20045;-75
2021/01/19 03:15:30;;;;;;;12.13;4.03;;;2.90;99.90;;;;;;4995766;28;20383;-77
2021/01/19 03:17:57;;;;;;;10.07;4.03;;;2.90;99.90;;;;;;4996328;28;20053;-76
2021/01/19 03:20:25;;;;;;;8.35;4.10;;;2.80;99.90;;;;;;4995668;28;20057;-76
2021/01/19 03:22:51;;;;;;;9.15;4.00;;;2.90;99.90;;;;;;4994758;28;20042;-77
2021/01/19 03:25:18;;;;;;;10.43;3.88;;;2.90;99.90;;;;;;4995678;28;20137;-77
2021/01/19 03:27:44;;;;;;;9.55;4.13;;;2.90;99.90;;;;;;4995989;28;20384;-77
2021/01/19 03:30:11;;;;;;;9.35;3.80;;;2.90;99.90;;;;;;4995240;28;20050;-77
2021/01/19 03:32:37;;;;;;;6.78;3.50;;;2.90;99.90;;;;;;4995226;28;20476;-77
2021/01/19 03:35:05;;;;;;;6.30;3.00;;;2.90;99.90;;;;;;4995271;28;20046;-76
2021/01/19 03:37:32;;;;;;;7.07;3.20;;;2.90;99.90;;;;;;4994962;28;20030;-78
2021/01/19 03:39:58;;;;;;;9.15;3.97;;;2.90;99.90;;;;;;4995243;28;20033;-76
2021/01/19 03:42:24;;;;;;;8.63;4.30;;;2.90;99.90;;;;;;4995075;28;20034;-76
2021/01/19 03:44:50;;;;;;;5.90;3.30;;;2.90;99.90;;;;;;4995357;28;20387;-77
2021/01/19 03:47:16;;;;;;;6.00;3.40;;;2.90;99.90;;;;;;4994845;28;20038;-77
2021/01/19 03:49:42;;;;;;;7.30;3.50;;;2.90;99.90;;;;;;4995549;28;20039;-77
2021/01/19 03:52:08;;;;;;;7.50;2.75;;;2.90;99.90;;;;;;4995261;28;20396;-75
2021/01/19 03:54:35;;;;;;;6.47;2.75;;;2.90;99.90;;;;;;4994185;28;20034;-75
2021/01/19 03:57:01;;;;;;;6.32;3.40;;;2.80;99.90;;;;;;4994659;28;20403;-75
2021/01/19 03:59:27;;;;;;;5.05;3.40;;;2.80;99.90;;;;;;4994313;28;20042;-76
2021/01/19 04:01:53;;;;;;;7.90;3.75;;;2.80;99.90;;;;;;4995422;28;20037;-75
2021/01/19 04:04:19;;;;;;;8.70;5.13;;;2.80;99.90;;;;;;4981130;28;20038;-76
2021/01/19 04:06:46;;;;;;;8.40;3.72;;;2.80;99.90;;;;;;4994945;28;20034;-76
2021/01/19 04:09:12;;;;;;;7.75;3.83;;;2.80;99.90;;;;;;4994683;28;20027;-75
2021/01/19 04:11:38;;;;;;;4.85;3.38;;;2.80;99.90;;;;;;4994531;28;20030;-75
2021/01/19 04:14:04;;;;;;;6.32;4.07;;;2.80;99.90;;;;;;4993660;28;20050;-77
2021/01/19 04:16:30;;;;;;;10.55;3.83;;;2.70;99.90;;;;;;4994123;28;20042;-76
2021/01/19 04:18:57;;;;;;;9.32;4.03;;;2.70;99.90;;;;;;4994479;28;20034;-77
2021/01/19 04:21:25;;;;;;;6.47;3.55;;;2.70;99.90;;;;;;4992833;28;20053;-77
2021/01/19 04:23:51;;;;;;;7.35;3.60;;;2.70;99.90;;;;;;4994602;28;20030;-76
2021/01/19 04:26:18;;;;;;;8.65;3.53;;;2.70;99.90;;;;;;4993878;28;20042;-75
2021/01/19 04:28:44;;;;;;;7.50;3.22;;;2.70;99.90;;;;;;4994055;28;20036;-76
2021/01/19 04:31:10;;;;;;;7.72;3.35;;;2.70;99.90;;;;;;4993219;28;20037;-76
2021/01/19 04:33:36;;;;;;;8.68;3.95;;;2.70;99.90;;;;;;4993202;28;20050;-76
2021/01/19 04:36:02;;;;;;;10.80;4.40;;;2.70;99.90;;;;;;4976090;28;20046;-76
2021/01/19 04:38:29;;;;;;;7.72;3.95;;;2.60;99.90;;;;;;4993129;28;20050;-76
2021/01/19 04:40:56;;;;;;;9.55;3.78;;;2.70;99.90;;;;;;4993531;28;20472;-76
2021/01/19 04:43:23;;;;;;;8.13;3.72;;;2.70;99.90;;;;;;4992886;28;20029;-78
2021/01/19 04:45:51;;;;;;;9.20;4.00;;;2.70;99.90;;;;;;4993385;28;20102;-76
2021/01/19 04:48:19;;;;;;;7.20;3.60;;;2.70;99.90;;;;;;4992912;28;20049;-77
2021/01/19 04:50:46;;;;;;;59.08;28.30;;;2.60;99.90;;;;;;4993438;28;20034;-75
2021/01/19 04:53:15;;;;;;;26.00;15.07;;;2.60;99.90;;;;;;5012883;28;20475;-76
2021/01/19 04:55:52;;;;;;;29.70;14.35;;;2.60;99.90;;;;;;4994636;28;20038;-77
2021/01/19 04:58:22;;;;;;;75.22;31.48;;;2.60;99.90;;;;;;4993190;28;20115;-77
2021/01/19 05:01:05;;;;;;;64.50;28.85;;;2.60;99.90;;;;;;4992848;28;20041;-75
2021/01/19 05:03:42;;;;;;;74.45;30.90;;;2.60;99.90;;;;;;4992157;28;20491;-75
2021/01/19 05:06:30;;;;;;;113.60;47.85;;;2.60;99.90;;;;;;4993479;28;20384;-75
2021/01/19 05:08:58;;;;;;;65.43;25.02;;;2.60;99.90;;;;;;4992777;28;20037;-76
2021/01/19 05:11:27;;;;;;;74.95;27.65;;;2.60;99.90;;;;;;4992281;28;20038;-77
2021/01/19 05:14:03;;;;;;;44.83;16.58;;;2.60;99.90;;;;;;4976230;28;20487;-77
2021/01/19 05:16:35;;;;;;;116.60;44.25;;;2.50;99.90;;;;;;4992360;28;20464;-77
2021/01/19 05:19:04;;;;;;;70.45;29.45;;;2.50;99.90;;;;;;4995758;28;20038;-78
2021/01/19 05:21:36;;;;;;;145.77;51.92;;;2.60;99.90;;;;;;5004331;28;20049;-77
2021/01/19 05:24:02;;;;;;;84.88;34.47;;;2.50;99.90;;;;;;4992588;28;20022;-77
2021/01/19 05:26:31;;;;;;;142.60;53.15;;;2.50;99.90;;;;;;4990991;28;20062;-77
2021/01/19 05:28:58;;;;;;;231.03;83.13;;;2.50;99.90;;;;;;4971353;28;595382;-76
2021/01/19 05:31:29;;;;;;;89.30;34.13;;;2.50;99.90;;;;;;4992924;28;20045;-76
2021/01/19 05:33:55;;;;;;;181.48;74.75;;;2.50;99.90;;;;;;4993545;28;20043;-75
2021/01/19 05:36:23;;;;;;;80.05;32.58;;;2.50;99.90;;;;;;4991533;28;20050;-76
2021/01/19 05:38:51;;;;;;;74.47;31.80;;;2.50;99.90;;;;;;5002197;28;20030;-76
2021/01/19 05:41:50;;;;;;;58.67;26.20;;;2.40;99.90;;;;;;4976488;28;20042;-77
2021/01/19 05:44:19;;;;;;;38.35;18.10;;;2.40;99.90;;;;;;5007917;28;20597;-76
2021/01/19 05:46:59;;;;;;;22.10;9.80;;;2.50;99.90;;;;;;4993189;28;20427;-78
2021/01/19 05:49:48;;;;;;;24.65;13.48;;;2.50;99.90;;;;;;4997953;28;20353;-77
2021/01/19 05:52:15;;;;;;;38.05;17.50;;;2.40;99.90;;;;;;4992788;28;20042;-78
2021/01/19 05:54:46;;;;;;;54.25;24.55;;;2.40;99.90;;;;;;5007868;28;20033;-78
2021/01/19 05:57:20;;;;;;;24.38;12.60;;;2.40;99.90;;;;;;4993700;28;20056;-77
2021/01/19 05:59:52;;;;;;;13.95;6.95;;;2.40;99.90;;;;;;4993148;28;20368;-77
2021/01/19 06:02:21;;;;;;;13.77;7.28;;;2.40;99.90;;;;;;4975544;28;20061;-78
2021/01/19 06:04:52;;;;;;;21.88;9.55;;;2.40;99.90;;;;;;4978885;28;20035;-77
2021/01/19 06:07:22;;;;;;;18.98;8.55;;;2.40;99.90;;;;;;4997961;28;20038;-79
2021/01/19 06:09:49;;;;;;;11.63;4.88;;;2.40;99.90;;;;;;4991332;28;20053;-78
2021/01/19 06:12:16;;;;;;;17.58;8.60;;;2.40;99.90;;;;;;4992322;28;20053;-77
2021/01/19 06:14:51;;;;;;;10.40;4.07;;;2.40;99.90;;;;;;4993579;28;20030;-78
2021/01/19 06:17:22;;;;;;;11.98;5.75;;;2.40;99.90;;;;;;4991570;28;20047;-80
2021/01/19 06:19:50;;;;;;;15.43;8.02;;;2.40;99.90;;;;;;5006409;28;20044;-81
2021/01/19 06:22:19;;;;;;;16.27;6.55;;;2.40;99.90;;;;;;4992711;28;20045;-80
2021/01/19 06:24:48;;;;;;;11.27;4.78;;;2.30;99.90;;;;;;4993250;28;20026;-80
2021/01/19 06:27:23;;;;;;;14.55;5.93;;;2.30;99.90;;;;;;4993330;28;20047;-80
2021/01/19 06:29:59;;;;;;;10.20;5.30;;;2.30;99.90;;;;;;4992821;28;20046;-77
2021/01/19 06:32:33;;;;;;;19.98;8.45;;;2.20;99.90;;;;;;4992800;28;20472;-80
2021/01/19 06:35:29;;;;;;;15.90;6.93;;;2.20;99.90;;;;;;4992990;28;20038;-80
2021/01/19 06:37:56;;;;;;;18.73;8.85;;;2.20;99.90;;;;;;4976505;28;20050;-80
2021/01/19 06:40:24;;;;;;;14.13;6.10;;;2.20;99.90;;;;;;4991946;28;20472;-80
2021/01/19 06:43:02;;;;;;;10.52;4.60;;;2.10;99.90;;;;;;4999897;28;20033;-80
2021/01/19 06:45:33;;;;;;;21.58;8.75;;;2.00;99.90;;;;;;4996855;28;20034;-80
2021/01/19 06:48:02;;;;;;;12.90;5.00;;;2.00;99.90;;;;;;5006588;28;20364;-88
2021/01/19 06:50:33;;;;;;;12.65;6.93;;;2.00;99.90;;;;;;5007127;28;20046;-87
2021/01/19 06:53:43;;;;;;;7.65;3.00;;;2.00;99.90;;;;;;4996401;28;20027;-88
2021/01/19 06:56:16;;;;;;;7.25;3.28;;;2.00;99.90;;;;;;4939243;29;20066;-88
2021/01/19 06:58:48;;;;;;;7.32;3.58;;;2.00;99.90;;;;;;4991409;28;20050;-83
2021/01/19 07:01:41;;;;;;;7.80;3.78;;;2.00;99.90;;;;;;4996934;28;20034;-81
2021/01/19 07:04:23;;;;;;;9.27;3.25;;;2.00;99.90;;;;;;4992360;28;20043;-84
2021/01/19 07:07:24;;;;;;;7.45;3.00;;;2.00;99.90;;;;;;4996701;28;20392;-84
2021/01/19 07:10:03;;;;;;;7.03;2.78;;;2.10;99.90;;;;;;4996972;28;20027;-84
2021/01/19 07:12:55;;;;;;;10.43;3.13;;;2.10;99.90;;;;;;4995924;28;20361;-82
2021/01/19 07:15:27;;;;;;;;;;;2.10;99.90;;;;;;4990709;28;20419;-87
2021/01/19 07:18:13;;;;;;;8.02;2.47;;;2.10;99.90;;;;;;5007834;28;19909;-85
2021/01/19 07:21:00;;;;;;;5.65;2.58;;;2.10;99.90;;;;;;5001211;28;20189;-77
2021/01/19 07:23:51;;;;;;;8.13;2.63;;;2.10;99.90;;;;;;4995033;28;20034;-77
2021/01/19 07:26:23;;;;;;;5.63;3.15;;;2.10;99.90;;;;;;4995830;28;20452;-77
2021/01/19 07:28:51;;;;;;;7.03;3.33;;;2.00;99.90;;;;;;4995622;28;20053;-77
2021/01/19 07:31:19;;;;;;;7.70;2.80;;;2.00;99.90;;;;;;4995970;28;20057;-77
2021/01/19 07:33:55;;;;;;;5.45;3.03;;;2.10;99.90;;;;;;4995015;28;20388;-77
2021/01/19 07:36:23;;;;;;;10.55;3.05;;;2.10;99.90;;;;;;4995259;28;20042;-77
2021/01/19 07:38:50;;;;;;;8.30;3.55;;;2.10;99.90;;;;;;5013909;28;20410;-78
2021/01/19 07:41:33;;;;;;;6.88;2.67;;;2.10;99.90;;;;;;4995835;28;20034;-78
2021/01/19 07:44:01;;;;;;;8.48;3.95;;;2.10;99.90;;;;;;4995689;28;20030;-78
2021/01/19 07:46:29;;;;;;;6.65;3.30;;;2.10;99.90;;;;;;4994993;28;20045;-77
2021/01/19 07:48:59;;;;;;;4.35;2.75;;;2.20;99.90;;;;;;4997070;28;20046;-77
2021/01/19 07:51:37;;;;;;;8.43;2.73;;;2.20;99.90;;;;;;4995357;28;20030;-78
2021/01/19 07:54:03;;;;;;;10.18;2.97;;;2.20;99.90;;;;;;4995111;28;20045;-78
2021/01/19 07:56:31;;;;;;;7.97;2.70;;;2.30;99.90;;;;;;4995900;28;20390;-77
2021/01/19 07:58:59;;;;;;;4.85;2.75;;;2.30;99.90;;;;;;4995232;28;20034;-77
2021/01/19 08:01:30;;;;;;;5.78;2.65;;;2.30;99.90;;;;;;4992889;28;20042;-77
2021/01/19 08:04:10;;;;;;;;;;;2.40;99.90;;;;;;4995136;28;20034;-77
2021/01/19 08:06:37;;;;;;;7.53;2.63;;;2.50;99.90;;;;;;4994742;28;19910;-77
2021/01/19 08:09:14;;;;;;;5.78;2.42;;;2.40;99.90;;;;;;4994981;28;20026;-76
2021/01/19 08:11:43;;;;;;;7.45;3.17;;;2.50;99.90;;;;;;4994606;28;20189;-76
2021/01/19 08:14:10;;;;;;;6.20;2.58;;;2.50;99.90;;;;;;4994889;28;20045;-77
2021/01/19 08:16:37;;;;;;;6.18;3.63;;;2.60;99.90;;;;;;4994388;28;20392;-77
2021/01/19 08:19:05;;;;;;;8.13;2.80;;;2.60;99.90;;;;;;4998972;28;20049;-77
2021/01/19 08:21:55;;;;;;;7.47;2.92;;;2.60;99.90;;;;;;4994899;28;20026;-78
2021/01/19 08:24:24;;;;;;;9.37;2.30;;;2.60;99.90;;;;;;4993856;28;20042;-77
2021/01/19 08:26:51;;;;;;;9.00;3.30;;;2.60;99.90;;;;;;4982158;28;20045;-75
2021/01/19 08:29:19;;;;;;;6.55;2.58;;;2.60;99.90;;;;;;4994385;28;20030;-76
2021/01/19 08:32:00;;;;;;;6.07;2.70;;;2.60;99.90;;;;;;4993738;28;20031;-78
2021/01/19 08:34:28;;;;;;;7.03;2.83;;;2.60;99.90;;;;;;4994028;28;20041;-77
2021/01/19 08:36:56;;;;;;;5.63;2.70;;;2.70;99.90;;;;;;5001508;28;20043;-77
2021/01/19 08:39:23;;;;;;;4.38;2.35;;;2.60;99.90;;;;;;4994205;28;20038;-76
2021/01/19 08:41:51;;;;;;;10.80;2.85;;;2.70;99.90;;;;;;4993978;28;20030;-76
2021/01/19 08:44:18;;;;;;;6.80;2.83;;;2.60;99.90;;;;;;4992813;28;20050;-78
2021/01/19 08:46:46;;;;;;;7.50;2.50;;;2.70;99.90;;;;;;4993899;28;20473;-76
2021/01/19 08:49:15;;;;;;;6.82;3.03;;;2.70;99.90;;;;;;4994650;28;20029;-76
2021/01/19 08:51:48;;;;;;;7.55;2.65;;;2.70;99.90;;;;;;4993481;28;20034;-76
2021/01/19 08:54:15;;;;;;;5.90;2.42;;;2.70;99.90;;;;;;4993855;28;20037;-77
2021/01/19 08:56:43;;;;;;;9.57;3.13;;;2.70;99.90;;;;;;4993157;28;20058;-78
2021/01/19 08:59:14;;;;;;;8.68;3.15;;;2.80;99.90;;;;;;4993505;28;20030;-77
2021/01/19 09:01:48;;;;;;;8.60;4.00;;;2.80;99.90;;;;;;4993623;28;20038;-77
2021/01/19 09:04:35;;;;;;;5.43;2.67;;;2.80;99.90;;;;;;4993973;28;20038;-77
2021/01/19 09:07:05;;;;;;;6.13;2.70;;;2.80;99.90;;;;;;4993339;28;20054;-77
2021/01/19 09:09:32;;;;;;;7.97;2.45;;;2.80;99.90;;;;;;4993188;28;20034;-78
2021/01/19 09:11:58;;;;;;;9.35;2.42;;;2.80;99.90;;;;;;4993671;28;20027;-78
2021/01/19 09:14:26;;;;;;;4.68;2.42;;;2.80;99.90;;;;;;4993387;28;20031;-77
2021/01/19 09:16:53;;;;;;;5.45;2.58;;;2.90;99.90;;;;;;4993005;28;20057;-77
2021/01/19 09:19:20;;;;;;;5.55;2.38;;;2.90;99.90;;;;;;4993651;28;20026;-78
2021/01/19 09:21:47;;;;;;;3.25;1.85;;;2.90;99.90;;;;;;4992239;28;20045;-76
2021/01/19 09:24:14;;;;;;;7.10;3.45;;;2.90;99.90;;;;;;4992884;28;20330;-77
2021/01/19 09:26:57;;;;;;;5.75;2.47;;;3.00;99.90;;;;;;4992791;28;20034;-77
2021/01/19 09:29:28;;;;;;;7.07;2.38;;;3.00;99.90;;;;;;4992624;28;20034;-75
2021/01/19 09:31:57;;;;;;;4.55;2.03;;;3.00;99.90;;;;;;4993524;28;20027;-77
2021/01/19 09:34:25;;;;;;;7.78;2.53;;;3.00;99.90;;;;;;4992843;28;20037;-76
2021/01/19 09:36:51;;;;;;;3.33;1.77;;;3.00;99.90;;;;;;4993065;28;20038;-77
2021/01/19 09:39:29;;;;;;;4.97;2.05;;;3.00;99.90;;;;;;4992322;28;20487;-77
2021/01/19 09:41:58;;;;;;;4.25;2.30;;;3.10;99.90;;;;;;4993160;28;20042;-77
2021/01/19 09:44:26;;;;;;;6.28;2.63;;;3.10;99.90;;;;;;4992469;28;20376;-76
2021/01/19 09:46:59;;;;;;;8.35;3.72;;;3.10;99.90;;;;;;4993047;28;20041;-77
2021/01/19 09:49:26;;;;;;;5.20;2.05;;;3.10;99.90;;;;;;4992630;28;20049;-78
2021/01/19 09:51:53;;;;;;;7.13;2.40;;;3.10;99.90;;;;;;4992721;28;20045;-77
2021/01/19 09:54:24;;;;;;;4.00;1.83;;;3.20;99.90;;;;;;4993420;28;20061;-77
2021/01/19 09:56:57;;;;;;;6.32;2.22;;;3.10;99.90;;;;;;4993007;28;20042;-77
2021/01/19 09:59:28;;;;;;;7.13;3.00;;;3.20;99.90;;;;;;4992627;28;20030;-77
2021/01/19 10:01:56;;;;;;;6.38;2.92;;;3.20;99.90;;;;;;4992844;28;20045;-80
2021/01/19 10:04:24;;;;;;;10.35;6.55;;;3.20;99.90;;;;;;4992746;28;20027;-78
2021/01/19 10:07:07;;;;;;;10.52;4.75;;;3.20;99.90;;;;;;4992637;28;20040;-77
2021/01/19 10:09:38;;;;;;;14.73;5.45;;;3.20;99.90;;;;;;4991466;28;20050;-77
2021/01/19 10:12:07;;;;;;;9.15;4.25;;;3.20;99.90;;;;;;4995502;28;20029;-78
2021/01/19 10:14:38;;;;;;;8.70;2.47;;;3.20;99.90;;;;;;4992105;28;20035;-78
2021/01/19 10:17:05;;;;;;;7.57;2.22;;;3.20;99.90;;;;;;4992002;28;20049;-77
2021/01/19 10:19:33;;;;;;;6.22;2.72;;;3.20;99.90;;;;;;4991600;28;20491;-77
2021/01/19 10:22:10;;;;;;;5.32;2.88;;;3.20;99.90;;;;;;4991499;28;20360;-77
2021/01/19 10:24:45;;;;;;;13.13;6.07;;;3.10;99.90;;;;;;4992554;28;20037;-78
2021/01/19 10:27:12;;;;;;;6.93;3.08;;;3.20;99.90;;;;;;4992497;28;20038;-77
2021/01/19 10:29:40;;;;;;;8.52;4.35;;;3.10;99.90;;;;;;4992157;28;20384;-77
2021/01/19 10:32:14;;;;;;;8.43;2.97;;;3.10;99.90;;;;;;4992693;28;20035;-78
2021/01/19 10:34:45;;;;;;;6.35;2.65;;;3.10;99.90;;;;;;4992705;28;20038;-78
2021/01/19 10:37:12;;;;;;;8.50;3.38;;;3.20;99.90;;;;;;4992258;28;20045;-77
2021/01/19 10:39:57;;;;;;;12.90;3.80;;;3.20;99.90;;;;;;4991382;28;20034;-78
2021/01/19 10:42:26;;;;;;;13.50;4.57;;;3.20;99.90;;;;;;4992684;28;20042;-77
2021/01/19 10:45:00;;;;;;;8.32;2.92;;;3.30;99.90;;;;;;4992320;28;20038;-78
2021/01/19 10:47:28;;;;;;;7.18;2.85;;;3.30;99.90;;;;;;4991955;28;20415;-76
2021/01/19 10:49:54;;;;;;;5.35;2.30;;;3.40;99.90;;;;;;4992500;28;20030;-77
2021/01/19 10:52:20;;;;;;;5.00;2.38;;;3.40;99.90;;;;;;4992255;28;20034;-77
2021/01/19 10:54:47;;;;;;;7.47;2.20;;;3.40;99.90;;;;;;4992149;28;20376;-77
2021/01/19 10:57:13;;;;;;;4.95;1.98;;;3.40;99.90;;;;;;4992007;28;20385;-77
2021/01/19 10:59:39;;;;;;;5.55;2.42;;;3.40;99.90;;;;;;4991743;28;20045;-77
2021/01/19 11:02:06;;;;;;;6.95;3.10;;;3.40;99.90;;;;;;4992534;28;20482;-77
2021/01/19 11:04:32;;;;;;;7.97;2.70;;;3.40;99.90;;;;;;4991833;28;20033;-77
2021/01/19 11:07:02;;;;;;;5.70;3.17;;;3.40;99.90;;;;;;4992113;28;20034;-78
2021/01/19 11:09:28;;;;;;;9.27;3.85;;;3.40;99.90;;;;;;4991898;28;20027;-77
2021/01/19 11:11:54;;;;;;;18.42;7.95;;;3.40;99.90;;;;;;4992448;28;20056;-77
2021/01/19 11:14:21;;;;;;;9.70;4.15;;;3.40;99.90;;;;;;4990850;28;20037;-77
2021/01/19 11:16:47;;;;;;;10.13;5.13;;;3.40;99.90;;;;;;4991472;28;20046;-77
2021/01/19 11:19:15;;;;;;;11.57;6.20;;;3.40;99.90;;;;;;4992060;28;20030;-77
2021/01/19 11:21:42;;;;;;;10.43;5.72;;;3.50;99.90;;;;;;4991116;28;20046;-77
2021/01/19 11:24:11;;;;;;;7.38;3.63;;;3.50;99.90;;;;;;4991925;28;20400;-77
2021/01/19 11:26:39;;;;;;;10.18;4.43;;;3.50;99.90;;;;;;4991367;28;20058;-78
2021/01/19 11:29:07;;;;;;;9.43;3.60;;;3.50;99.90;;;;;;4992676;28;20023;-77
2021/01/19 11:31:34;;;;;;;8.55;3.03;;;3.50;99.90;;;;;;4956136;28;20488;-77
2021/01/19 11:34:03;;;;;;;9.63;3.10;;;3.50;99.90;;;;;;4956723;28;20031;-76
2021/01/19 11:36:35;;;;;;;7.70;3.03;;;3.50;99.90;;;;;;4956311;28;20116;-77
2021/01/19 11:39:03;;;;;;;11.85;3.63;;;3.60;99.90;;;;;;4956444;28;20409;-77
2021/01/19 11:41:29;;;;;;;13.48;5.38;;;3.60;99.90;;;;;;4956437;28;20031;-77
2021/01/19 11:43:56;;;;;;;7.93;3.40;;;3.60;99.90;;;;;;4957181;28;20413;-77
2021/01/19 11:46:27;;;;;;;12.27;4.93;;;3.70;99.90;;;;;;4956156;28;20396;-77
2021/01/19 11:48:56;;;;;;;7.10;2.40;;;3.80;99.90;;;;;;4956542;28;20039;-77
2021/01/19 11:51:30;;;;;;;5.13;2.17;;;3.80;99.90;;;;;;4955927;28;20035;-76
2021/01/19 11:53:59;;;;;;;6.45;2.50;;;3.80;99.90;;;;;;4956405;28;20425;-78
2021/01/19 11:56:34;;;;;;;6.25;2.63;;;3.80;99.90;;;;;;4956970;28;20358;-77
2021/01/19 11:59:01;;;;;;;8.20;3.97;;;3.80;99.90;;;;;;4957016;28;20119;-77
2021/01/19 12:01:28;;;;;;;5.85;2.50;;;3.70;99.90;;;;;;4956439;28;20047;-76
2021/01/19 12:03:55;;;;;;;10.02;4.85;;;3.70;99.90;;;;;;4956107;28;20035;-76
2021/01/19 12:06:21;;;;;;;5.97;2.72;;;3.70;99.90;;;;;;4955948;28;20043;-76
2021/01/19 12:08:49;;;;;;;7.82;2.78;;;3.70;99.90;;;;;;4955557;28;20166;-77
2021/01/19 12:11:16;;;;;;;6.53;2.38;;;3.70;99.90;;;;;;4955869;28;20039;-77
2021/01/19 12:13:42;;;;;;;8.25;3.08;;;3.60;99.90;;;;;;4955748;28;20035;-77
2021/01/19 12:16:10;;;;;;;11.30;3.10;;;3.60;99.90;;;;;;4955087;28;20039;-76
2021/01/19 12:18:38;;;;;;;7.25;2.58;;;3.60;99.90;;;;;;4971842;28;20499;-77
2021/01/19 12:21:08;;;;;;;6.40;2.25;;;3.60;99.90;;;;;;4955799;28;20087;-78
2021/01/19 12:23:36;;;;;;;6.38;2.40;;;3.60;99.90;;;;;;4969939;28;20401;-78
2021/01/19 12:26:02;;;;;;;5.45;2.28;;;3.60;99.90;;;;;;4955338;28;20496;-76
2021/01/19 12:28:29;;;;;;;6.57;2.05;;;3.60;99.90;;;;;;4956640;28;20035;-76
2021/01/19 12:30:55;;;;;;;9.55;2.78;;;3.60;99.90;;;;;;4985441;28;20043;-77
2021/01/19 12:33:22;;;;;;;5.95;3.92;;;3.60;99.90;;;;;;4994589;28;20034;-77
2021/01/19 12:35:52;;;;;;;4.90;2.72;;;3.60;99.90;;;;;;4993269;28;20475;-77
2021/01/19 12:38:19;;;;;;;8.07;2.47;;;3.60;99.90;;;;;;4994765;28;20042;-78
2021/01/19 12:40:46;;;;;;;8.35;2.55;;;3.70;99.90;;;;;;4975523;28;20041;-78
2021/01/19 12:43:12;;;;;;;6.03;2.05;;;3.60;99.90;;;;;;4994713;28;20415;-79
2021/01/19 12:45:39;;;;;;;7.53;2.67;;;3.60;99.90;;;;;;4992705;28;20049;-77
2021/01/19 12:48:06;;;;;;;5.72;2.38;;;3.70;99.90;;;;;;4993754;28;20507;-77
2021/01/19 12:50:34;;;;;;;6.05;3.00;;;3.80;99.90;;;;;;4993657;28;20038;-77
2021/01/19 12:53:02;;;;;;;11.07;3.65;;;3.80;99.90;;;;;;4992948;28;20053;-77
2021/01/19 12:55:32;;;;;;;6.70;2.80;;;3.80;99.90;;;;;;4992963;28;20046;-77
2021/01/19 12:57:59;;;;;;;9.70;3.42;;;3.80;99.90;;;;;;4993629;28;20034;-78
2021/01/19 13:00:26;;;;;;;7.00;2.25;;;3.90;99.90;;;;;;4993597;28;20038;-77
2021/01/19 13:02:53;;;;;;;5.38;2.55;;;3.90;99.90;;;;;;4993506;28;20031;-77
2021/01/19 13:05:19;;;;;;;5.10;2.65;;;3.90;99.90;;;;;;4993785;28;20034;-77
2021/01/19 13:07:46;;;;;;;6.00;2.80;;;4.00;99.90;;;;;;4993378;28;20388;-77
2021/01/19 13:10:12;;;;;;;8.38;3.65;;;4.00;99.90;;;;;;4993633;28;20037;-77